Time;durP1;ratioP1;P1;durP2;ratioP2;P2;SDS_P1;SDS_P2;PMS_P1;PMS_P2;Temp;Humidity;BMP_temperature;BMP_pressure;BME280_temperature;BME280_humidity;BME280_pressure;Samples;Min_cycle;Max_cycle;Signal;HPM_P1;HPM_P2
2020/12/06 00:01:18;;;;;;;7.55;3.63;;;-0.40;99.90;;;;;;5048134;28;20037;-82
2020/12/06 00:03:43;;;;;;;8.57;4.00;;;-0.30;99.90;;;;;;5047312;28;20025;-82
2020/12/06 00:06:09;;;;;;;8.88;4.13;;;-0.20;99.90;;;;;;5046832;28;20105;-82
2020/12/06 00:08:34;;;;;;;8.45;4.30;;;-0.10;99.90;;;;;;5036262;28;20052;-82
2020/12/06 00:11:00;;;;;;;7.60;3.88;;;0.00;99.90;;;;;;5030245;28;20040;-81
2020/12/06 00:13:26;;;;;;;8.95;4.72;;;0.00;99.90;;;;;;5030564;28;20022;-81
2020/12/06 00:15:51;;;;;;;10.68;4.25;;;0.10;99.90;;;;;;5054629;28;20097;-82
2020/12/06 00:18:17;;;;;;;9.52;4.25;;;0.20;99.90;;;;;;5084898;28;20029;-82
2020/12/06 00:20:43;;;;;;;8.60;4.30;;;0.20;99.90;;;;;;5086417;28;20103;-81
2020/12/06 00:23:08;;;;;;;9.40;4.68;;;0.40;99.90;;;;;;5053516;28;20054;-82
2020/12/06 00:25:34;;;;;;;7.68;3.85;;;0.30;99.90;;;;;;5053495;28;20060;-82
2020/12/06 00:27:59;;;;;;;10.10;5.00;;;0.60;99.90;;;;;;5053339;28;20028;-81
2020/12/06 00:30:26;;;;;;;9.90;5.45;;;0.50;99.90;;;;;;5086770;28;20038;-82
2020/12/06 00:32:51;;;;;;;8.27;3.70;;;0.60;99.90;;;;;;5069800;28;20024;-81
2020/12/06 00:35:17;;;;;;;10.40;5.03;;;0.60;99.90;;;;;;5086554;28;20036;-81
2020/12/06 00:37:42;;;;;;;10.15;4.90;;;0.70;99.90;;;;;;5053017;28;20035;-81
2020/12/06 00:40:09;;;;;;;8.05;4.47;;;0.80;99.90;;;;;;5069714;28;20526;-82
2020/12/06 00:42:35;;;;;;;8.90;4.72;;;0.80;99.90;;;;;;5087652;28;20028;-82
2020/12/06 00:45:05;;;;;;;6.93;3.70;;;0.70;99.90;;;;;;5069873;28;20028;-82
2020/12/06 00:47:31;;;;;;;8.13;3.72;;;0.60;99.90;;;;;;5053083;28;20027;-82
2020/12/06 00:49:57;;;;;;;8.68;3.80;;;0.40;99.90;;;;;;5069724;28;20028;-82
2020/12/06 00:52:22;;;;;;;8.88;4.28;;;0.30;99.90;;;;;;5069595;28;20035;-82
2020/12/06 00:54:48;;;;;;;6.45;3.75;;;0.30;99.90;;;;;;5069563;28;20035;-81
2020/12/06 00:57:14;;;;;;;7.28;3.63;;;0.20;99.90;;;;;;5052844;28;20033;-81
2020/12/06 00:59:39;;;;;;;8.02;3.13;;;0.10;99.90;;;;;;5069645;28;20036;-81
2020/12/06 01:02:06;;;;;;;7.07;4.05;;;0.20;99.90;;;;;;5087180;28;20036;-82
2020/12/06 01:04:32;;;;;;;7.35;3.58;;;0.20;99.90;;;;;;5052522;28;20025;-81
2020/12/06 01:06:59;;;;;;;9.18;3.72;;;0.20;99.90;;;;;;5068963;28;20032;-81
2020/12/06 01:09:25;;;;;;;9.00;3.67;;;0.20;99.90;;;;;;5069070;28;20392;-81
2020/12/06 01:11:51;;;;;;;6.97;3.35;;;0.20;99.90;;;;;;5069078;28;20035;-82
2020/12/06 01:14:17;;;;;;;6.28;3.70;;;0.20;99.90;;;;;;5049604;28;20033;-82
2020/12/06 01:16:43;;;;;;;7.07;3.67;;;0.30;99.90;;;;;;5048790;28;20025;-82
2020/12/06 01:19:08;;;;;;;7.85;4.45;;;0.20;99.90;;;;;;5049193;28;20040;-81
2020/12/06 01:21:34;;;;;;;8.68;4.75;;;0.20;99.90;;;;;;5081968;28;20053;-81
2020/12/06 01:23:59;;;;;;;7.93;3.85;;;0.30;99.90;;;;;;5065339;28;20466;-81
2020/12/06 01:26:25;;;;;;;8.10;3.75;;;0.30;99.90;;;;;;5065194;28;20073;-82
2020/12/06 01:28:51;;;;;;;8.30;4.03;;;0.20;99.90;;;;;;5066511;28;20036;-81
2020/12/06 01:31:16;;;;;;;8.40;4.28;;;0.20;99.90;;;;;;5065198;28;20033;-81
2020/12/06 01:33:42;;;;;;;7.88;4.00;;;0.30;99.90;;;;;;5065361;28;20108;-81
2020/12/06 01:36:08;;;;;;;9.90;4.57;;;0.20;99.90;;;;;;5065217;28;20389;-81
2020/12/06 01:38:34;;;;;;;7.88;4.35;;;0.20;99.90;;;;;;5065037;28;20040;-80
2020/12/06 01:40:59;;;;;;;8.20;4.03;;;0.20;99.90;;;;;;5068295;28;20052;-81
2020/12/06 01:43:25;;;;;;;6.90;3.10;;;0.00;99.90;;;;;;5051725;28;20029;-81
2020/12/06 01:45:50;;;;;;;7.95;3.63;;;-0.10;99.90;;;;;;5068307;28;20465;-81
2020/12/06 01:48:16;;;;;;;6.47;3.40;;;-0.10;99.90;;;;;;5085039;28;20054;-81
2020/12/06 01:50:43;;;;;;;7.30;3.50;;;-0.20;99.90;;;;;;5068302;28;20033;-81
2020/12/06 01:53:08;;;;;;;7.60;3.67;;;-0.20;99.90;;;;;;5086117;28;20033;-81
2020/12/06 01:55:35;;;;;;;7.72;3.72;;;-0.20;99.90;;;;;;5086160;28;20099;-81
2020/12/06 01:58:05;;;;;;;7.82;4.10;;;-0.30;99.90;;;;;;5068271;28;20055;-80
2020/12/06 02:00:31;;;;;;;;;;;-0.30;99.90;;;;;;5085416;28;20464;-81
2020/12/06 02:02:59;;;;;;;9.57;4.75;;;-0.40;99.90;;;;;;5067639;28;19904;-80
2020/12/06 02:05:25;;;;;;;7.70;3.78;;;-0.40;99.90;;;;;;5086126;28;20032;-81
2020/12/06 02:07:52;;;;;;;7.47;3.42;;;-0.50;99.90;;;;;;5064695;28;20052;-81
2020/12/06 02:10:17;;;;;;;10.68;4.20;;;-0.40;99.90;;;;;;5066985;28;20061;-82
2020/12/06 02:12:47;;;;;;;8.50;4.13;;;-0.50;99.90;;;;;;5084568;28;20036;-82
2020/12/06 02:15:14;;;;;;;7.38;3.72;;;-0.60;99.90;;;;;;5059322;28;20561;-81
2020/12/06 02:17:39;;;;;;;7.97;4.20;;;-0.60;99.90;;;;;;5067936;28;20063;-81
2020/12/06 02:20:05;;;;;;;9.60;4.00;;;-0.60;99.90;;;;;;5086329;28;20032;-82
2020/12/06 02:22:31;;;;;;;7.40;3.35;;;-0.60;99.90;;;;;;5066122;28;20025;-83
2020/12/06 02:24:56;;;;;;;8.27;4.20;;;-0.60;99.90;;;;;;5047875;28;20053;-83
2020/12/06 02:27:22;;;;;;;10.18;4.13;;;-0.60;99.90;;;;;;5084047;28;20070;-82
2020/12/06 02:29:48;;;;;;;9.80;3.95;;;-0.60;99.90;;;;;;5067989;28;20032;-82
2020/12/06 02:32:13;;;;;;;7.90;4.28;;;-0.60;99.90;;;;;;5049949;28;20032;-82
2020/12/06 02:34:39;;;;;;;8.70;4.78;;;-0.60;99.90;;;;;;5067827;28;20043;-82
2020/12/06 02:37:05;;;;;;;9.52;4.18;;;-0.60;99.90;;;;;;5051219;28;20033;-81
2020/12/06 02:39:31;;;;;;;9.40;4.82;;;-0.60;99.90;;;;;;5047603;28;20031;-82
2020/12/06 02:41:56;;;;;;;9.90;4.65;;;-0.60;99.90;;;;;;5067766;28;20039;-83
2020/12/06 02:44:22;;;;;;;7.93;4.00;;;-0.60;99.90;;;;;;5050925;28;20036;-82
2020/12/06 02:46:48;;;;;;;7.63;3.80;;;-0.70;99.90;;;;;;5048012;28;20040;-82
2020/12/06 02:49:13;;;;;;;7.40;3.65;;;-0.60;99.90;;;;;;5041681;28;20039;-82
2020/12/06 02:51:39;;;;;;;8.27;3.63;;;-0.60;99.90;;;;;;5067616;28;20040;-81
2020/12/06 02:54:05;;;;;;;8.38;3.67;;;-0.70;99.90;;;;;;5048414;28;20033;-81
2020/12/06 02:56:31;;;;;;;9.52;4.47;;;-0.60;99.90;;;;;;5084368;28;20051;-80
2020/12/06 02:58:57;;;;;;;9.07;4.50;;;-0.60;99.90;;;;;;5047691;28;20025;-81
2020/12/06 03:01:30;;;;;;;8.52;3.70;;;-0.70;99.90;;;;;;5047409;28;20047;-82
2020/12/06 03:03:56;;;;;;;9.35;4.53;;;-0.70;99.90;;;;;;5081508;28;20044;-81
2020/12/06 03:06:21;;;;;;;5.50;3.10;;;-0.70;99.90;;;;;;5050433;28;20095;-82
2020/12/06 03:08:47;;;;;;;9.18;4.60;;;-0.70;99.90;;;;;;5047472;28;20132;-81
2020/12/06 03:11:13;;;;;;;8.85;3.95;;;-0.50;99.90;;;;;;5062311;28;20133;-83
2020/12/06 03:13:39;;;;;;;7.88;4.05;;;-0.60;99.90;;;;;;5042324;28;20029;-82
2020/12/06 03:16:05;;;;;;;8.85;4.10;;;-0.60;99.90;;;;;;5050946;28;20040;-82
2020/12/06 03:18:31;;;;;;;7.68;3.70;;;-0.50;99.90;;;;;;5048007;28;20091;-81
2020/12/06 03:20:56;;;;;;;9.55;4.10;;;-0.40;99.90;;;;;;5047786;28;20037;-82
2020/12/06 03:23:22;;;;;;;8.38;4.25;;;-0.40;99.90;;;;;;5051338;28;20052;-82
2020/12/06 03:25:48;;;;;;;8.40;4.72;;;-0.40;99.90;;;;;;5031397;28;20034;-81
2020/12/06 03:28:14;;;;;;;8.25;3.83;;;-0.40;99.90;;;;;;5067595;28;20491;-83
2020/12/06 03:30:39;;;;;;;10.68;5.07;;;-0.30;99.90;;;;;;5067806;28;20032;-82
2020/12/06 03:33:05;;;;;;;9.07;4.35;;;-0.30;99.90;;;;;;5032047;28;20026;-81
2020/12/06 03:35:31;;;;;;;9.48;4.75;;;-0.20;99.90;;;;;;5067741;28;20029;-82
2020/12/06 03:37:56;;;;;;;8.75;4.13;;;-0.20;99.90;;;;;;5067625;28;20025;-82
2020/12/06 03:40:22;;;;;;;7.90;4.18;;;-0.20;99.90;;;;;;5067708;28;20039;-82
2020/12/06 03:42:51;;;;;;;13.32;5.47;;;-0.20;99.90;;;;;;5050771;28;20025;-82
2020/12/06 03:45:17;;;;;;;9.43;4.30;;;-0.30;99.90;;;;;;5034277;28;20036;-81
2020/12/06 03:47:43;;;;;;;9.30;4.35;;;-0.20;99.90;;;;;;5050731;28;20025;-82
2020/12/06 03:50:09;;;;;;;8.30;4.30;;;-0.10;99.90;;;;;;5034192;28;20120;-81
2020/12/06 03:52:35;;;;;;;9.15;4.60;;;-0.20;99.90;;;;;;5034346;28;20043;-82
2020/12/06 03:55:00;;;;;;;8.55;4.53;;;-0.20;99.90;;;;;;5034159;28;20111;-82
2020/12/06 03:57:26;;;;;;;8.48;4.63;;;-0.10;99.90;;;;;;5068327;28;20036;-82
2020/12/06 03:59:51;;;;;;;10.68;5.95;;;0.00;99.90;;;;;;5034123;28;20033;-82
2020/12/06 04:02:17;;;;;;;10.93;4.63;;;0.00;99.90;;;;;;5033755;28;20040;-80
2020/12/06 04:04:44;;;;;;;7.82;5.25;;;0.00;99.90;;;;;;5050283;28;20037;-81
2020/12/06 04:07:10;;;;;;;9.82;4.50;;;0.00;99.90;;;;;;5033937;28;20033;-81
2020/12/06 04:09:35;;;;;;;9.50;4.85;;;0.00;99.90;;;;;;5067174;28;20048;-81
2020/12/06 04:12:01;;;;;;;10.93;5.28;;;0.00;99.90;;;;;;5033544;28;20033;-82
2020/12/06 04:14:27;;;;;;;10.50;5.63;;;0.00;99.90;;;;;;5034462;28;20119;-82
2020/12/06 04:16:53;;;;;;;11.02;5.45;;;0.00;99.90;;;;;;5067273;28;20195;-82
2020/12/06 04:19:18;;;;;;;7.88;4.53;;;-0.10;99.90;;;;;;5069656;28;20040;-82
2020/12/06 04:21:44;;;;;;;9.90;4.85;;;-0.10;99.90;;;;;;5050143;28;20041;-82
2020/12/06 04:24:12;;;;;;;8.57;4.60;;;0.00;99.90;;;;;;5067873;28;20118;-83
2020/12/06 04:26:40;;;;;;;8.73;4.75;;;0.00;99.90;;;;;;5066767;28;20033;-82
2020/12/06 04:29:06;;;;;;;9.38;5.22;;;0.10;99.90;;;;;;5064882;28;20033;-82
2020/12/06 04:31:31;;;;;;;11.95;5.60;;;0.00;99.90;;;;;;5066761;28;20031;-82
2020/12/06 04:33:57;;;;;;;9.75;5.30;;;0.00;99.90;;;;;;5079596;28;20032;-82
2020/12/06 04:36:23;;;;;;;9.82;5.30;;;0.00;99.90;;;;;;5053280;28;20028;-82
2020/12/06 04:38:48;;;;;;;10.43;5.40;;;0.00;99.90;;;;;;5053349;28;20121;-82
2020/12/06 04:41:14;;;;;;;10.10;4.97;;;0.00;99.90;;;;;;5069717;28;20049;-82
2020/12/06 04:43:40;;;;;;;12.65;6.30;;;0.00;99.90;;;;;;5066210;28;20059;-82
2020/12/06 04:46:07;;;;;;;10.73;5.65;;;0.00;99.90;;;;;;5050635;28;20473;-82
2020/12/06 04:49:06;;;;;;;12.30;6.57;;;-0.10;99.90;;;;;;5053187;28;20100;-82
2020/12/06 04:51:43;;;;;;;12.23;5.50;;;-0.10;99.90;;;;;;5052956;28;20028;-82
2020/12/06 04:54:09;;;;;;;10.07;5.65;;;-0.20;99.90;;;;;;5050910;28;20272;-82
2020/12/06 04:56:38;;;;;;;8.55;4.80;;;-0.10;99.90;;;;;;5052772;28;20028;-82
2020/12/06 04:59:04;;;;;;;10.82;7.05;;;-0.20;99.90;;;;;;5050225;28;20039;-82
2020/12/06 05:01:34;;;;;;;11.18;6.55;;;-0.30;99.90;;;;;;5069364;28;20044;-81
2020/12/06 05:04:23;;;;;;;10.52;5.82;;;-0.30;99.90;;;;;;5052890;28;20025;-82
2020/12/06 05:06:50;;;;;;;10.63;6.00;;;-0.30;99.90;;;;;;5005493;28;20049;-82
2020/12/06 05:09:16;;;;;;;9.38;5.05;;;-0.30;99.90;;;;;;4989186;28;20054;-81
2020/12/06 05:11:43;;;;;;;10.70;5.43;;;-0.40;99.90;;;;;;4988915;28;20038;-81
2020/12/06 05:14:09;;;;;;;12.55;6.50;;;-0.30;99.90;;;;;;5003741;28;20158;-81
2020/12/06 05:16:38;;;;;;;10.18;5.75;;;-0.30;99.90;;;;;;4969871;28;20043;-82
2020/12/06 05:19:05;;;;;;;12.68;5.22;;;-0.40;99.90;;;;;;4985994;28;20102;-82
2020/12/06 05:21:36;;;;;;;9.85;5.40;;;-0.40;99.90;;;;;;4969720;28;20071;-82
2020/12/06 05:24:02;;;;;;;;;;;-0.40;99.90;;;;;;4970274;28;20039;-82
2020/12/06 05:26:28;;;;;;;12.48;6.05;;;-0.30;99.90;;;;;;4969686;28;19952;-82
2020/12/06 05:28:54;;;;;;;14.60;7.22;;;-0.30;99.90;;;;;;4969561;28;20050;-82
2020/12/06 05:31:23;;;;;;;10.50;6.03;;;-0.30;99.90;;;;;;4969491;28;20043;-82
2020/12/06 05:33:50;;;;;;;11.82;5.80;;;-0.30;99.90;;;;;;4969475;28;20500;-82
2020/12/06 05:36:16;;;;;;;9.07;5.32;;;-0.30;99.90;;;;;;4968915;28;20042;-82
2020/12/06 05:38:42;;;;;;;11.98;6.53;;;-0.30;99.90;;;;;;4969530;28;20030;-81
2020/12/06 05:41:08;;;;;;;13.70;7.35;;;-0.20;99.90;;;;;;4992013;28;20042;-81
2020/12/06 05:43:34;;;;;;;8.52;5.00;;;-0.30;99.90;;;;;;5040988;28;20079;-82
2020/12/06 05:46:16;;;;;;;16.38;8.95;;;-0.20;99.90;;;;;;5028738;28;20029;-81
2020/12/06 05:48:44;;;;;;;18.70;10.00;;;-0.20;99.90;;;;;;5028892;28;20433;-81
2020/12/06 05:51:10;;;;;;;12.75;6.57;;;-0.20;99.90;;;;;;5046720;28;20462;-81
2020/12/06 05:53:36;;;;;;;15.13;8.30;;;-0.20;99.90;;;;;;5048551;28;20123;-81
2020/12/06 05:56:13;;;;;;;15.68;7.88;;;-0.20;99.90;;;;;;5032034;28;20031;-83
2020/12/06 05:58:44;;;;;;;13.98;6.45;;;-0.20;99.90;;;;;;5065320;28;20052;-82
2020/12/06 06:01:15;;;;;;;14.80;7.53;;;-0.20;99.90;;;;;;5065917;28;20040;-81
2020/12/06 06:03:43;;;;;;;14.52;7.03;;;-0.20;99.90;;;;;;5045111;28;20033;-82
2020/12/06 06:06:24;;;;;;;11.68;6.18;;;-0.20;99.90;;;;;;5045931;28;20033;-80
2020/12/06 06:08:51;;;;;;;14.88;8.55;;;-0.10;99.90;;;;;;5044827;28;20077;-82
2020/12/06 06:11:23;;;;;;;9.52;5.50;;;-0.10;99.90;;;;;;5046995;28;20033;-81
2020/12/06 06:13:58;;;;;;;11.88;6.53;;;-0.10;99.90;;;;;;5044711;28;20034;-81
2020/12/06 06:16:26;;;;;;;11.82;6.40;;;-0.10;99.90;;;;;;5067221;28;20032;-82
2020/12/06 06:18:53;;;;;;;18.88;8.25;;;0.00;99.90;;;;;;5068430;28;20029;-82
2020/12/06 06:21:22;;;;;;;14.10;7.78;;;0.00;99.90;;;;;;5051228;28;20538;-81
2020/12/06 06:23:49;;;;;;;14.45;7.75;;;0.00;99.90;;;;;;5051671;28;20029;-82
2020/12/06 06:26:18;;;;;;;12.85;7.40;;;0.00;99.90;;;;;;5067824;28;20050;-82
2020/12/06 06:28:45;;;;;;;17.45;10.50;;;0.00;99.90;;;;;;5051471;28;20104;-82
2020/12/06 06:31:13;;;;;;;15.13;7.68;;;0.00;99.90;;;;;;5050974;28;20203;-82
2020/12/06 06:33:39;;;;;;;14.68;8.43;;;0.00;99.90;;;;;;5051365;28;20033;-82
2020/12/06 06:36:10;;;;;;;16.23;8.60;;;0.10;99.90;;;;;;5051100;28;20036;-82
2020/12/06 06:38:42;;;;;;;12.05;7.40;;;0.10;99.90;;;;;;5067725;28;20063;-82
2020/12/06 06:41:09;;;;;;;13.85;7.68;;;0.10;99.90;;;;;;5050777;28;20044;-83
2020/12/06 06:43:35;;;;;;;15.95;7.95;;;0.10;99.90;;;;;;5084616;28;20060;-82
2020/12/06 06:46:10;;;;;;;15.63;8.73;;;0.20;99.90;;;;;;5084368;28;20093;-82
2020/12/06 06:48:35;;;;;;;14.98;7.22;;;0.20;99.90;;;;;;5088246;28;20048;-83
2020/12/06 06:51:03;;;;;;;15.80;8.15;;;0.20;99.90;;;;;;5088772;28;20028;-83
2020/12/06 06:53:28;;;;;;;14.77;7.82;;;0.20;99.90;;;;;;5088858;28;20047;-83
2020/12/06 06:55:54;;;;;;;18.02;8.23;;;0.20;99.90;;;;;;5090010;28;20119;-83
2020/12/06 06:58:26;;;;;;;12.75;6.85;;;0.20;99.90;;;;;;5054611;28;20040;-82
2020/12/06 07:01:12;;;;;;;13.85;7.68;;;0.30;99.90;;;;;;5088217;28;20040;-83
2020/12/06 07:03:48;;;;;;;17.02;9.05;;;0.30;99.90;;;;;;5088257;28;20028;-84
2020/12/06 07:06:50;;;;;;;16.77;8.32;;;0.40;99.90;;;;;;5070133;28;20040;-81
2020/12/06 07:09:25;;;;;;;17.40;8.52;;;0.40;99.90;;;;;;5088183;28;20386;-81
2020/12/06 07:11:53;;;;;;;15.52;8.10;;;0.40;99.90;;;;;;5043336;28;20036;-81
2020/12/06 07:14:25;;;;;;;15.35;7.88;;;0.50;99.90;;;;;;5051340;28;20032;-81
2020/12/06 07:16:55;;;;;;;12.98;7.03;;;0.50;99.90;;;;;;5067742;28;20029;-81
2020/12/06 07:19:21;;;;;;;20.23;8.55;;;0.50;99.90;;;;;;5060542;28;20044;-81
2020/12/06 07:21:48;;;;;;;15.68;7.78;;;0.40;99.90;;;;;;5034375;28;20045;-81
2020/12/06 07:24:15;;;;;;;15.30;7.75;;;0.50;99.90;;;;;;5034596;28;20172;-81
2020/12/06 07:26:42;;;;;;;15.57;8.20;;;0.50;99.90;;;;;;5034148;28;20037;-80
2020/12/06 07:29:08;;;;;;;17.17;8.38;;;0.50;99.90;;;;;;5034615;28;20052;-81
2020/12/06 07:31:34;;;;;;;18.70;10.45;;;0.50;99.90;;;;;;5034219;28;20033;-81
2020/12/06 07:34:04;;;;;;;18.90;9.35;;;0.50;99.90;;;;;;5034460;28;20028;-81
2020/12/06 07:36:31;;;;;;;14.98;8.32;;;0.50;99.90;;;;;;5034195;28;20040;-81
2020/12/06 07:38:57;;;;;;;12.85;7.63;;;0.60;99.90;;;;;;5034499;28;20390;-84
2020/12/06 07:41:22;;;;;;;14.32;7.80;;;0.60;99.90;;;;;;5036834;28;20146;-81
2020/12/06 07:43:58;;;;;;;14.20;8.02;;;0.60;99.90;;;;;;5070623;28;20028;-81
2020/12/06 07:46:24;;;;;;;16.30;8.90;;;0.60;99.90;;;;;;5050623;28;20029;-83
2020/12/06 07:48:57;;;;;;;14.43;7.93;;;0.60;99.90;;;;;;5037333;28;20029;-82
2020/12/06 07:51:26;;;;;;;17.75;9.07;;;0.60;99.90;;;;;;5050457;28;20037;-82
2020/12/06 07:53:52;;;;;;;18.08;9.52;;;0.60;99.90;;;;;;5050254;28;20051;-82
2020/12/06 07:56:20;;;;;;;14.63;7.00;;;0.60;99.90;;;;;;5049752;28;20483;-80
2020/12/06 07:58:53;;;;;;;16.92;7.35;;;0.60;99.90;;;;;;5055937;28;20168;-81
2020/12/06 08:01:18;;;;;;;17.83;9.23;;;0.60;99.90;;;;;;5052251;28;20135;-81
2020/12/06 08:03:45;;;;;;;18.65;10.70;;;0.70;99.90;;;;;;5069484;28;20091;-81
2020/12/06 08:06:13;;;;;;;17.20;8.93;;;0.70;99.90;;;;;;5069522;28;20040;-82
2020/12/06 08:08:42;;;;;;;21.02;10.45;;;0.70;99.90;;;;;;5054564;28;20113;-82
2020/12/06 08:11:09;;;;;;;19.83;9.38;;;0.70;99.90;;;;;;5047343;28;20092;-81
2020/12/06 08:13:34;;;;;;;17.40;8.43;;;0.70;99.90;;;;;;5066374;28;20033;-82
2020/12/06 08:16:09;;;;;;;25.10;12.07;;;0.70;99.90;;;;;;5054515;28;20036;-82
2020/12/06 08:18:35;;;;;;;19.58;10.35;;;0.70;99.90;;;;;;5052750;28;20032;-81
2020/12/06 08:21:00;;;;;;;19.05;9.85;;;0.80;99.90;;;;;;5086261;28;20108;-81
2020/12/06 08:23:33;;;;;;;25.30;10.23;;;0.80;99.90;;;;;;5069590;28;20036;-82
2020/12/06 08:25:59;;;;;;;17.15;8.38;;;0.80;99.90;;;;;;5052661;28;20032;-81
2020/12/06 08:28:25;;;;;;;17.95;8.65;;;0.80;99.90;;;;;;5069463;28;20043;-81
2020/12/06 08:30:51;;;;;;;17.65;9.18;;;0.80;99.90;;;;;;5069396;28;20036;-81
2020/12/06 08:33:25;;;;;;;17.95;10.23;;;0.80;99.90;;;;;;5069439;28;20044;-81
2020/12/06 08:35:53;;;;;;;20.67;8.60;;;0.80;99.90;;;;;;5052466;28;20033;-81
2020/12/06 08:38:21;;;;;;;18.38;8.68;;;0.80;99.90;;;;;;5052646;28;20033;-81
2020/12/06 08:41:01;;;;;;;17.83;8.52;;;0.80;99.90;;;;;;5037554;28;20048;-81
2020/12/06 08:43:43;;;;;;;17.50;8.68;;;0.90;99.90;;;;;;5077977;28;20048;-81
2020/12/06 08:46:19;;;;;;;17.27;9.20;;;0.90;99.90;;;;;;5058976;28;20045;-82
2020/12/06 08:48:50;;;;;;;16.77;7.93;;;0.90;99.90;;;;;;5035510;28;20029;-81
2020/12/06 08:51:22;;;;;;;16.45;8.95;;;0.90;99.90;;;;;;5056290;28;20025;-83
2020/12/06 08:53:48;;;;;;;15.23;7.63;;;0.90;99.90;;;;;;5044047;28;20039;-81
2020/12/06 08:56:31;;;;;;;20.98;9.93;;;0.90;99.90;;;;;;5084325;28;20053;-81
2020/12/06 08:59:14;;;;;;;15.98;8.80;;;0.90;99.90;;;;;;5046546;28;20068;-81
2020/12/06 09:01:47;;;;;;;16.83;9.02;;;1.00;99.90;;;;;;5047804;28;20417;-82
2020/12/06 09:04:33;;;;;;;23.25;11.90;;;1.00;99.90;;;;;;5066564;28;20029;-81
2020/12/06 09:07:00;;;;;;;20.58;9.77;;;1.00;99.90;;;;;;5001041;28;20042;-82
2020/12/06 09:09:26;;;;;;;25.27;13.05;;;1.10;99.90;;;;;;4991950;28;20062;-83
2020/12/06 09:11:55;;;;;;;22.23;11.98;;;1.10;99.90;;;;;;5016145;28;20033;-81
2020/12/06 09:14:22;;;;;;;26.02;12.55;;;1.10;99.90;;;;;;4958678;28;20038;-82
2020/12/06 09:16:48;;;;;;;26.67;13.88;;;1.10;99.90;;;;;;5004470;28;20027;-82
2020/12/06 09:19:14;;;;;;;21.88;12.43;;;1.10;99.90;;;;;;4999762;28;20045;-81
2020/12/06 09:21:39;;;;;;;24.85;12.27;;;1.20;99.90;;;;;;4989362;28;20137;-80
2020/12/06 09:24:05;;;;;;;19.15;10.00;;;1.20;99.90;;;;;;5016969;28;20094;-81
2020/12/06 09:26:38;;;;;;;19.95;10.85;;;1.40;99.90;;;;;;4991112;28;20041;-81
2020/12/06 09:29:04;;;;;;;22.88;13.10;;;1.40;99.90;;;;;;4998478;28;20030;-82
2020/12/06 09:31:29;;;;;;;24.80;15.13;;;1.50;99.90;;;;;;5007640;28;20074;-82
2020/12/06 09:33:55;;;;;;;27.92;15.95;;;1.40;99.90;;;;;;4996156;28;20031;-80
2020/12/06 09:36:21;;;;;;;27.67;16.52;;;1.50;99.90;;;;;;5001839;28;20034;-81
2020/12/06 09:38:47;;;;;;;26.95;13.30;;;1.50;99.90;;;;;;4968080;28;20058;-80
2020/12/06 09:41:12;;;;;;;27.20;15.05;;;1.50;99.90;;;;;;4985929;28;20065;-82
2020/12/06 09:43:41;;;;;;;26.17;14.45;;;1.50;99.90;;;;;;4996734;28;20463;-81
2020/12/06 09:46:12;;;;;;;27.73;14.27;;;1.50;99.90;;;;;;5044503;28;20083;-82
2020/12/06 09:48:37;;;;;;;;;;;1.50;99.90;;;;;;5024990;28;20065;-82
2020/12/06 09:51:04;;;;;;;33.33;16.75;;;1.60;99.90;;;;;;5037975;28;19909;-82
2020/12/06 09:53:30;;;;;;;31.52;16.63;;;1.60;99.90;;;;;;5024486;28;20030;-82
2020/12/06 09:55:56;;;;;;;34.35;20.20;;;1.70;99.90;;;;;;5007374;28;20034;-83
2020/12/06 09:58:21;;;;;;;31.60;17.88;;;1.70;99.90;;;;;;5044312;28;20038;-80
2020/12/06 10:00:47;;;;;;;32.28;17.75;;;1.80;99.90;;;;;;5044269;28;20055;-82
2020/12/06 10:03:12;;;;;;;28.17;15.52;;;1.90;99.90;;;;;;5026349;28;20040;-82
2020/12/06 10:05:38;;;;;;;30.48;16.98;;;2.00;99.90;;;;;;5045010;28;20037;-81
2020/12/06 10:08:04;;;;;;;24.58;14.45;;;2.20;99.90;;;;;;5025956;28;20056;-82
2020/12/06 10:10:29;;;;;;;22.10;11.63;;;2.30;99.90;;;;;;5048352;28;20037;-81
2020/12/06 10:12:55;;;;;;;23.45;13.15;;;2.40;99.90;;;;;;5049403;28;20109;-81
2020/12/06 10:15:20;;;;;;;24.80;12.00;;;2.50;99.90;;;;;;5064117;28;20089;-82
2020/12/06 10:17:46;;;;;;;26.67;13.32;;;2.60;99.90;;;;;;5031160;28;20096;-82
2020/12/06 10:20:12;;;;;;;26.90;13.32;;;2.60;99.90;;;;;;5031032;28;20159;-83
2020/12/06 10:22:37;;;;;;;24.00;12.77;;;2.60;99.90;;;;;;5030290;28;20036;-82
2020/12/06 10:25:05;;;;;;;23.05;11.75;;;2.70;99.90;;;;;;5047524;28;20035;-83
2020/12/06 10:27:30;;;;;;;21.73;12.00;;;2.70;99.90;;;;;;5030881;28;20055;-81
2020/12/06 10:29:56;;;;;;;23.50;13.95;;;2.70;99.90;;;;;;5030962;28;20131;-82
2020/12/06 10:32:21;;;;;;;24.60;14.50;;;2.80;99.90;;;;;;5047111;28;20124;-82
2020/12/06 10:34:47;;;;;;;23.90;13.25;;;2.80;99.90;;;;;;5030664;28;20393;-85
2020/12/06 10:37:13;;;;;;;24.67;13.82;;;2.70;99.90;;;;;;5064480;28;20036;-82
2020/12/06 10:39:38;;;;;;;22.90;12.55;;;2.80;99.90;;;;;;5052614;28;20193;-82
2020/12/06 10:42:04;;;;;;;30.92;16.00;;;2.90;99.90;;;;;;5066807;28;20048;-82
2020/12/06 10:44:29;;;;;;;28.27;15.38;;;2.90;99.90;;;;;;5067310;28;20028;-82
2020/12/06 10:46:55;;;;;;;25.23;14.98;;;3.00;99.90;;;;;;5083928;28;20385;-82
2020/12/06 10:49:21;;;;;;;27.00;13.65;;;3.10;99.90;;;;;;5076238;28;20032;-81
2020/12/06 10:51:48;;;;;;;25.52;13.48;;;3.20;99.90;;;;;;5058299;28;20040;-82
2020/12/06 10:54:14;;;;;;;19.27;10.57;;;3.30;99.90;;;;;;5064307;28;20033;-83
2020/12/06 10:56:40;;;;;;;24.88;13.18;;;3.30;99.90;;;;;;5049978;28;20032;-84
2020/12/06 10:59:07;;;;;;;26.83;16.17;;;3.30;99.90;;;;;;5058764;28;20083;-82
2020/12/06 11:01:34;;;;;;;27.10;15.25;;;3.20;99.90;;;;;;5073117;28;20041;-83
2020/12/06 11:04:24;;;;;;;19.83;12.10;;;3.20;99.90;;;;;;5046582;28;20025;-83
2020/12/06 11:06:52;;;;;;;23.27;12.50;;;3.20;99.90;;;;;;5027216;28;20051;-81
2020/12/06 11:09:17;;;;;;;19.83;11.55;;;3.20;99.90;;;;;;5045664;28;20494;-82
2020/12/06 11:11:43;;;;;;;29.88;18.60;;;3.10;99.90;;;;;;5027308;28;20101;-82
2020/12/06 11:14:09;;;;;;;26.58;15.77;;;3.10;99.90;;;;;;5028341;28;20025;-82
2020/12/06 11:16:34;;;;;;;25.20;13.65;;;3.20;99.90;;;;;;5028005;28;20493;-82
2020/12/06 11:19:00;;;;;;;27.98;16.55;;;3.20;99.90;;;;;;5046006;28;20017;-82
2020/12/06 11:21:25;;;;;;;30.58;16.80;;;3.20;99.90;;;;;;5046335;28;20040;-82
2020/12/06 11:23:54;;;;;;;28.23;16.33;;;3.20;99.90;;;;;;5040241;28;20466;-83
2020/12/06 11:26:20;;;;;;;23.80;13.45;;;3.20;99.90;;;;;;5046362;28;20041;-82
2020/12/06 11:28:46;;;;;;;24.70;13.90;;;3.30;99.90;;;;;;5045895;28;20028;-82
2020/12/06 11:31:12;;;;;;;24.98;12.82;;;3.40;99.90;;;;;;5046620;28;20039;-82
2020/12/06 11:33:38;;;;;;;22.35;12.50;;;3.40;99.90;;;;;;5029887;28;20036;-82
2020/12/06 11:36:04;;;;;;;26.33;15.48;;;3.50;99.90;;;;;;5049477;28;20036;-81
2020/12/06 11:38:30;;;;;;;24.20;13.93;;;3.40;99.90;;;;;;5029690;28;20041;-81
2020/12/06 11:40:56;;;;;;;23.75;13.45;;;3.50;99.90;;;;;;5042503;28;20080;-82
2020/12/06 11:43:22;;;;;;;27.58;16.13;;;3.50;99.90;;;;;;5046474;28;20033;-82
2020/12/06 11:45:47;;;;;;;25.45;14.52;;;3.50;99.90;;;;;;5050259;28;20039;-82
2020/12/06 11:48:13;;;;;;;28.90;17.88;;;3.50;99.90;;;;;;5045156;28;20029;-82
2020/12/06 11:50:39;;;;;;;27.58;16.35;;;3.40;99.90;;;;;;5049877;28;20024;-82
2020/12/06 11:53:04;;;;;;;27.88;16.13;;;3.50;99.90;;;;;;5033299;28;20073;-82
2020/12/06 11:55:30;;;;;;;29.98;16.55;;;3.50;99.90;;;;;;5017691;28;20029;-83
2020/12/06 11:57:56;;;;;;;25.13;14.45;;;3.50;99.90;;;;;;5029512;28;20030;-83
2020/12/06 12:00:22;;;;;;;30.73;18.48;;;3.50;99.90;;;;;;5032970;28;20040;-83
2020/12/06 12:02:47;;;;;;;30.65;16.95;;;3.50;99.90;;;;;;5033021;28;20051;-82
2020/12/06 12:07:50;;;;;;;24.98;15.10;;;3.60;99.90;;;;;;5088616;23;20053;-83
2020/12/06 12:10:16;;;;;;;20.73;13.05;;;3.70;99.90;;;;;;5051381;28;20060;-83
2020/12/06 12:12:43;;;;;;;30.40;17.98;;;3.70;99.90;;;;;;5045185;28;20029;-82
2020/12/06 12:15:10;;;;;;;24.02;13.40;;;3.60;99.90;;;;;;5066245;28;20047;-82
2020/12/06 12:17:35;;;;;;;23.15;14.20;;;3.60;99.90;;;;;;5049942;28;20029;-83
2020/12/06 12:20:06;;;;;;;29.25;17.00;;;3.70;99.90;;;;;;5069613;28;20040;-82
2020/12/06 12:22:31;;;;;;;;;;;3.70;99.90;;;;;;5067462;28;20067;-82
2020/12/06 12:24:58;;;;;;;24.52;13.32;;;3.70;99.90;;;;;;5050998;28;19909;-86
2020/12/06 12:27:24;;;;;;;23.08;13.88;;;3.80;99.90;;;;;;5045426;28;20032;-83
2020/12/06 12:29:50;;;;;;;21.30;13.30;;;3.80;99.90;;;;;;5067538;28;20055;-82
2020/12/06 12:32:16;;;;;;;23.55;16.17;;;3.90;99.90;;;;;;5065762;28;20036;-82
2020/12/06 12:34:42;;;;;;;24.55;15.18;;;3.90;99.90;;;;;;5053470;28;20040;-83
2020/12/06 12:37:10;;;;;;;22.05;12.95;;;4.00;99.90;;;;;;5087198;28;20025;-82
2020/12/06 12:39:36;;;;;;;24.83;14.50;;;4.00;99.90;;;;;;5084191;28;20028;-81
2020/12/06 12:42:01;;;;;;;25.30;15.70;;;4.00;99.90;;;;;;5052115;28;20099;-84
2020/12/06 12:44:27;;;;;;;25.88;14.70;;;4.00;99.90;;;;;;5051008;28;20039;-83
2020/12/06 12:46:57;;;;;;;22.17;13.13;;;4.00;99.90;;;;;;5067754;28;20088;-83
2020/12/06 12:49:25;;;;;;;24.38;15.32;;;4.00;99.90;;;;;;5050646;28;20171;-83